Time;durP1;ratioP1;P1;durP2;ratioP2;P2;SDS_P1;SDS_P2;PMS_P1;PMS_P2;Temp;Humidity;BMP_temperature;BMP_pressure;BME280_temperature;BME280_humidity;BME280_pressure;Samples;Min_cycle;Max_cycle;Signal;HPM_P1;HPM_P2
2021/09/08 00:00:25;;;;;;;14.80;8.63;;;10.20;91.90;;;;;;5094538;28;20028;-85
2021/09/08 00:02:51;;;;;;;15.45;9.00;;;10.20;91.90;;;;;;5095374;28;20127;-85
2021/09/08 00:05:17;;;;;;;16.52;8.77;;;10.20;92.00;;;;;;5095930;28;20024;-85
2021/09/08 00:07:43;;;;;;;14.35;8.65;;;10.20;92.00;;;;;;5094357;28;20021;-85
2021/09/08 00:10:09;;;;;;;16.13;8.68;;;10.20;92.00;;;;;;5095672;28;20056;-85
2021/09/08 00:12:37;;;;;;;14.30;8.27;;;10.10;92.00;;;;;;5094698;28;20020;-85
2021/09/08 00:15:04;;;;;;;15.45;8.20;;;10.20;92.10;;;;;;5094342;28;20028;-85
2021/09/08 00:17:30;;;;;;;17.25;8.30;;;10.10;92.10;;;;;;5094278;28;20028;-85
2021/09/08 00:19:56;;;;;;;14.38;8.38;;;10.10;92.20;;;;;;5095497;28;20031;-84
2021/09/08 00:22:21;;;;;;;13.15;8.25;;;10.10;92.10;;;;;;5094276;28;20032;-84
2021/09/08 00:24:47;;;;;;;14.85;8.18;;;10.10;92.20;;;;;;5095117;28;20027;-84
2021/09/08 00:27:12;;;;;;;15.27;8.45;;;10.10;92.20;;;;;;5095421;28;20024;-85
2021/09/08 00:29:38;;;;;;;13.75;8.27;;;10.00;92.20;;;;;;5095314;28;20095;-85
2021/09/08 00:32:04;;;;;;;13.85;7.50;;;10.00;92.30;;;;;;5093910;28;20057;-84
2021/09/08 00:34:30;;;;;;;14.02;8.05;;;10.00;92.30;;;;;;5093925;28;20059;-84
2021/09/08 00:36:55;;;;;;;15.30;7.57;;;10.00;92.40;;;;;;5095182;28;20107;-84
2021/09/08 00:39:21;;;;;;;12.02;8.00;;;10.00;92.40;;;;;;5094812;28;20107;-84
2021/09/08 00:41:47;;;;;;;14.65;7.28;;;10.00;92.50;;;;;;5095039;28;20074;-84
2021/09/08 00:44:14;;;;;;;14.27;7.25;;;10.00;92.50;;;;;;5093647;28;20050;-84
2021/09/08 00:46:42;;;;;;;13.82;6.78;;;10.00;92.60;;;;;;5093701;28;20027;-84
2021/09/08 00:49:08;;;;;;;11.95;6.38;;;10.00;92.60;;;;;;5094937;28;20012;-84
2021/09/08 00:51:34;;;;;;;11.63;6.38;;;10.00;92.60;;;;;;5093004;28;20077;-84
2021/09/08 00:54:00;;;;;;;12.93;6.55;;;10.00;92.70;;;;;;5093327;28;20100;-84
2021/09/08 00:56:29;;;;;;;12.40;6.68;;;10.00;92.70;;;;;;5094813;28;20024;-84
2021/09/08 00:58:55;;;;;;;11.55;5.90;;;10.00;92.60;;;;;;5094538;28;20028;-85
2021/09/08 01:01:21;;;;;;;14.32;5.90;;;10.00;92.60;;;;;;5093434;28;20028;-83
2021/09/08 01:03:47;;;;;;;9.63;5.55;;;10.10;92.40;;;;;;5093220;28;20047;-83
2021/09/08 01:06:14;;;;;;;9.52;5.63;;;10.10;92.30;;;;;;5093020;28;20023;-83
2021/09/08 01:08:40;;;;;;;8.88;5.63;;;10.10;92.10;;;;;;5093332;28;20374;-83
2021/09/08 01:11:06;;;;;;;8.30;5.47;;;10.20;92.10;;;;;;5094367;28;20020;-83
2021/09/08 01:13:32;;;;;;;10.40;6.30;;;10.20;91.80;;;;;;5092711;28;20385;-83
2021/09/08 01:16:01;;;;;;;13.85;7.70;;;10.30;91.70;;;;;;5093219;28;20496;-83
2021/09/08 01:18:28;;;;;;;16.52;9.10;;;10.30;91.40;;;;;;5093135;28;20496;-83
2021/09/08 01:20:54;;;;;;;15.70;8.95;;;10.30;91.30;;;;;;5093611;28;20115;-83
2021/09/08 01:23:19;;;;;;;11.68;7.63;;;10.30;91.10;;;;;;5093203;28;20119;-84
2021/09/08 01:25:45;;;;;;;12.40;6.88;;;10.40;90.90;;;;;;5093058;28;20024;-83
2021/09/08 01:28:11;;;;;;;12.40;6.05;;;10.40;90.70;;;;;;5092969;28;20454;-85
2021/09/08 01:30:40;;;;;;;8.70;5.53;;;10.40;90.40;;;;;;5093003;28;20024;-83
2021/09/08 01:33:10;;;;;;;11.70;5.95;;;10.50;90.20;;;;;;5094180;28;20070;-82
2021/09/08 01:35:36;;;;;;;7.85;5.55;;;10.50;90.10;;;;;;5093248;28;20455;-83
2021/09/08 01:38:02;;;;;;;9.63;6.05;;;10.50;89.80;;;;;;5094062;28;20036;-83
2021/09/08 01:40:28;;;;;;;12.93;6.32;;;10.50;89.30;;;;;;5092466;28;20030;-83
2021/09/08 01:42:53;;;;;;;11.65;6.00;;;10.60;89.30;;;;;;5092725;28;20081;-83
2021/09/08 01:45:19;;;;;;;12.30;6.35;;;10.60;89.00;;;;;;5092795;28;20032;-84
2021/09/08 01:47:46;;;;;;;8.95;5.90;;;10.60;88.60;;;;;;5092487;28;20027;-83
2021/09/08 01:50:12;;;;;;;10.32;5.75;;;10.60;88.30;;;;;;5092350;28;20730;-83
2021/09/08 01:52:39;;;;;;;13.13;5.65;;;10.60;88.50;;;;;;5092653;28;20110;-84
2021/09/08 01:55:06;;;;;;;9.65;5.57;;;10.60;88.70;;;;;;5093900;28;20024;-84
2021/09/08 01:57:33;;;;;;;9.80;5.93;;;10.60;89.10;;;;;;5093593;28;20028;-84
2021/09/08 01:59:59;;;;;;;10.60;5.45;;;10.60;89.30;;;;;;5092002;28;20024;-84
2021/09/08 02:02:24;;;;;;;11.85;6.50;;;10.50;89.50;;;;;;5092449;28;20120;-84
2021/09/08 02:04:50;;;;;;;8.90;5.97;;;10.50;89.70;;;;;;5093448;28;20052;-85
2021/09/08 02:07:15;;;;;;;9.60;5.80;;;10.50;89.70;;;;;;5092478;28;20390;-84
2021/09/08 02:09:41;;;;;;;10.25;6.13;;;10.40;89.90;;;;;;5092304;28;20047;-84
2021/09/08 02:12:07;;;;;;;10.85;6.32;;;10.40;90.00;;;;;;5093757;28;20089;-82
2021/09/08 02:14:32;;;;;;;12.48;6.80;;;10.40;90.10;;;;;;5092379;28;20098;-84
2021/09/08 02:16:58;;;;;;;10.63;6.32;;;10.40;90.10;;;;;;5093372;28;20028;-85
2021/09/08 02:19:24;;;;;;;12.35;6.75;;;10.30;90.10;;;;;;5093623;28;20077;-85
2021/09/08 02:21:50;;;;;;;9.65;5.88;;;10.30;90.20;;;;;;5092341;28;20069;-85
2021/09/08 02:24:16;;;;;;;13.05;6.72;;;10.30;90.20;;;;;;5093145;28;20020;-85
2021/09/08 02:26:41;;;;;;;11.98;6.38;;;10.30;90.30;;;;;;5096071;28;20084;-84
2021/09/08 02:29:07;;;;;;;13.25;6.47;;;10.30;90.30;;;;;;5097646;28;20025;-84
2021/09/08 02:31:33;;;;;;;9.80;5.80;;;10.20;90.40;;;;;;5097222;28;20020;-85
2021/09/08 02:33:59;;;;;;;12.98;6.28;;;10.20;90.40;;;;;;5096035;28;20032;-85
2021/09/08 02:36:25;;;;;;;10.82;6.22;;;10.20;90.40;;;;;;5096134;28;20024;-85
2021/09/08 02:38:52;;;;;;;13.18;5.95;;;10.20;90.40;;;;;;5097435;28;20031;-85
2021/09/08 02:41:17;;;;;;;10.15;6.32;;;10.20;90.50;;;;;;5095994;28;20478;-85
2021/09/08 02:43:43;;;;;;;11.63;5.80;;;10.20;90.50;;;;;;5096072;28;20032;-85
2021/09/08 02:46:09;;;;;;;12.23;5.88;;;10.20;90.60;;;;;;5095712;28;20081;-85
2021/09/08 02:48:36;;;;;;;11.07;6.35;;;10.10;90.60;;;;;;5095782;28;20020;-85
2021/09/08 02:51:03;;;;;;;12.15;6.18;;;10.10;90.60;;;;;;5096004;28;20062;-85
2021/09/08 02:53:29;;;;;;;12.13;6.45;;;10.10;90.70;;;;;;5095635;28;20032;-85
2021/09/08 02:55:55;;;;;;;8.43;5.90;;;10.10;90.60;;;;;;5097200;28;20462;-85
2021/09/08 02:58:21;;;;;;;10.23;6.10;;;10.10;90.70;;;;;;5096659;28;20032;-86
2021/09/08 03:00:47;;;;;;;10.27;6.32;;;10.10;90.70;;;;;;5095608;28;20492;-86
2021/09/08 03:03:12;;;;;;;13.25;6.10;;;10.10;90.90;;;;;;5095196;28;20047;-85
2021/09/08 03:05:38;;;;;;;12.55;6.38;;;10.00;90.80;;;;;;5097054;28;20020;-85
2021/09/08 03:08:04;;;;;;;13.05;6.40;;;10.00;90.90;;;;;;5096652;28;20107;-86
2021/09/08 03:10:34;;;;;;;14.95;6.80;;;10.00;90.80;;;;;;5095617;28;20020;-85
2021/09/08 03:13:00;;;;;;;12.85;6.45;;;10.00;90.80;;;;;;5096927;28;20022;-85
2021/09/08 03:15:26;;;;;;;11.43;6.55;;;10.00;90.80;;;;;;5096481;28;20028;-82
2021/09/08 03:17:51;;;;;;;12.68;5.93;;;10.00;90.80;;;;;;5096978;28;20462;-82
2021/09/08 03:20:17;;;;;;;11.73;6.32;;;10.00;90.90;;;;;;5096532;28;20020;-82
2021/09/08 03:22:43;;;;;;;13.65;6.70;;;9.90;90.90;;;;;;5096444;28;20471;-82
2021/09/08 03:25:09;;;;;;;13.23;6.03;;;10.00;91.00;;;;;;5095276;28;20028;-82
2021/09/08 03:27:35;;;;;;;14.93;6.65;;;9.90;91.00;;;;;;5096750;28;20371;-82
2021/09/08 03:30:01;;;;;;;10.52;6.50;;;9.90;91.00;;;;;;5094827;28;20031;-81
2021/09/08 03:32:26;;;;;;;10.98;6.28;;;9.90;91.10;;;;;;5094904;28;20109;-83
2021/09/08 03:34:52;;;;;;;12.25;6.20;;;10.00;91.10;;;;;;5096046;28;20028;-82
2021/09/08 03:37:18;;;;;;;13.48;6.63;;;10.00;91.20;;;;;;5094487;28;20032;-82
2021/09/08 16:53:12;;;;;;;22.88;12.45;;;15.60;77.20;;;;;;5111006;27;20385;-89
2021/09/08 16:55:38;;;;;;;27.90;13.73;;;15.10;79.60;;;;;;5110494;28;20351;-82
2021/09/08 16:58:04;;;;;;;29.25;15.15;;;15.00;81.20;;;;;;5111319;28;20402;-82
2021/09/08 17:00:30;;;;;;;25.95;12.85;;;15.00;82.90;;;;;;5109235;28;20056;-83
2021/09/08 17:02:56;;;;;;;29.60;15.32;;;15.00;83.80;;;;;;5110149;28;20047;-82
2021/09/08 17:05:21;;;;;;;27.02;12.43;;;15.10;84.60;;;;;;5110003;28;20114;-83
2021/09/08 17:07:47;;;;;;;30.65;15.57;;;15.10;85.20;;;;;;5108532;28;20016;-83
2021/09/08 17:10:13;;;;;;;55.92;28.42;;;15.10;85.20;;;;;;5109157;28;20110;-82
2021/09/08 17:12:39;;;;;;;35.33;19.50;;;15.20;85.70;;;;;;5109126;28;20028;-82
2021/09/08 17:15:08;;;;;;;26.13;14.73;;;15.30;85.50;;;;;;5108190;28;20069;-82
2021/09/08 17:17:34;;;;;;;25.67;13.30;;;15.20;85.40;;;;;;5109014;28;20020;-82
2021/09/08 17:20:00;;;;;;;22.58;12.40;;;15.30;85.40;;;;;;5106811;28;20493;-82
2021/09/08 17:22:25;;;;;;;23.23;11.98;;;15.30;85.20;;;;;;5109614;28;20028;-81
2021/09/08 17:24:51;;;;;;;21.23;11.13;;;15.30;85.00;;;;;;5110462;28;20024;-85
2021/09/08 17:27:17;;;;;;;36.97;16.83;;;15.40;85.10;;;;;;5110632;28;20515;-81
2021/09/08 17:29:42;;;;;;;38.08;16.98;;;15.40;84.60;;;;;;5109531;28;20024;-84
2021/09/08 17:32:11;;;;;;;39.63;18.25;;;15.40;84.20;;;;;;5110544;28;20020;-83
2021/09/08 17:34:38;;;;;;;30.35;14.10;;;15.40;83.90;;;;;;5098329;28;20039;-82
2021/09/08 17:37:05;;;;;;;26.40;12.90;;;15.40;83.80;;;;;;5108173;28;20024;-82
2021/09/08 17:39:31;;;;;;;24.73;12.10;;;15.40;83.90;;;;;;5109226;28;20012;-82
2021/09/08 17:44:48;;;;;;;22.27;10.45;;;15.40;83.90;;;;;;5122511;27;20386;-82
2021/09/08 17:47:14;;;;;;;20.30;9.75;;;15.40;83.90;;;;;;5129757;28;20031;-82
2021/09/08 17:49:40;;;;;;;25.92;9.95;;;15.40;83.90;;;;;;5115550;28;20431;-81
2021/09/08 17:52:06;;;;;;;21.02;11.77;;;15.40;84.30;;;;;;5108085;28;20048;-81
2021/09/08 17:54:32;;;;;;;17.45;11.15;;;15.30;84.40;;;;;;5110134;28;20035;-81
2021/09/08 17:56:58;;;;;;;20.50;12.80;;;15.30;84.60;;;;;;5108653;28;20390;-82
2021/09/08 17:59:24;;;;;;;26.35;11.70;;;15.30;84.70;;;;;;5108666;28;20100;-81
2021/09/08 18:01:50;;;;;;;25.92;12.70;;;15.30;85.20;;;;;;5108590;28;20470;-81
2021/09/08 18:04:16;;;;;;;22.13;12.90;;;15.20;85.30;;;;;;5097081;28;20463;-82
2021/09/08 18:06:43;;;;;;;27.58;13.50;;;15.10;85.70;;;;;;5096866;28;20076;-82
2021/09/08 18:09:09;;;;;;;28.23;14.50;;;15.10;86.20;;;;;;5094900;28;20119;-82
2021/09/08 18:11:35;;;;;;;25.55;14.90;;;15.10;86.40;;;;;;5095458;28;20028;-82
2021/09/08 18:14:01;;;;;;;27.95;16.65;;;15.00;86.40;;;;;;5094878;28;20386;-81
2021/09/08 18:16:27;;;;;;;46.67;27.70;;;15.00;86.60;;;;;;5096484;28;20016;-81
2021/09/08 18:18:52;;;;;;;33.08;22.27;;;14.90;87.00;;;;;;5095948;28;20024;-81
2021/09/08 18:21:19;;;;;;;31.10;21.52;;;14.90;87.30;;;;;;5094707;28;20484;-81
2021/09/08 18:23:45;;;;;;;34.13;20.92;;;14.80;87.50;;;;;;5094957;28;20081;-81
2021/09/08 18:26:10;;;;;;;34.33;20.70;;;14.80;87.70;;;;;;5094910;28;20028;-83
2021/09/08 18:28:36;;;;;;;31.80;20.77;;;14.80;87.90;;;;;;5094817;28;20497;-80
2021/09/08 18:31:02;;;;;;;34.90;20.63;;;14.80;88.00;;;;;;5094672;28;20020;-83
2021/09/08 18:33:28;;;;;;;28.92;20.30;;;14.70;88.30;;;;;;5094741;28;20127;-83
2021/09/08 18:35:54;;;;;;;34.03;19.90;;;14.70;88.70;;;;;;5094531;28;20497;-83
2021/09/08 18:38:20;;;;;;;31.33;18.23;;;14.70;88.90;;;;;;5095869;28;20020;-83
2021/09/08 18:40:45;;;;;;;29.92;18.60;;;14.60;89.00;;;;;;5094546;28;20023;-83
2021/09/08 18:43:11;;;;;;;31.45;18.05;;;14.60;89.40;;;;;;5094391;28;20031;-83
2021/09/08 18:45:40;;;;;;;30.15;19.10;;;14.50;89.70;;;;;;5094496;28;20107;-83
2021/09/08 18:48:05;;;;;;;31.83;18.27;;;14.50;90.00;;;;;;5094385;28;20028;-83
2021/09/08 18:50:31;;;;;;;35.83;19.50;;;14.50;90.20;;;;;;5094176;28;20035;-83
2021/09/08 18:52:58;;;;;;;31.00;17.63;;;14.40;90.20;;;;;;5094084;28;20048;-83
2021/09/08 18:55:24;;;;;;;30.85;18.67;;;14.40;90.40;;;;;;5095224;28;20039;-83
2021/09/08 18:57:50;;;;;;;33.28;18.70;;;14.40;90.50;;;;;;5094197;28;20024;-83
2021/09/08 19:00:21;;;;;;;34.03;19.52;;;14.30;90.60;;;;;;5094333;28;20025;-83
2021/09/08 19:02:47;;;;;;;38.63;19.42;;;14.30;90.70;;;;;;5095521;28;20031;-82
2021/09/08 19:05:15;;;;;;;39.75;18.05;;;14.30;90.90;;;;;;5095245;28;20052;-83
2021/09/08 19:07:45;;;;;;;33.03;17.95;;;14.30;91.00;;;;;;5095166;28;20028;-82
2021/09/08 19:10:11;;;;;;;;;;;14.30;91.10;;;;;;5095621;28;20103;-82
2021/09/08 19:12:37;;;;;;;37.08;18.95;;;14.20;90.70;;;;;;5094011;28;19955;-82
2021/09/08 19:15:03;;;;;;;40.53;20.60;;;14.20;91.20;;;;;;5094359;28;20031;-85
2021/09/08 19:17:29;;;;;;;107.47;57.75;;;14.20;91.40;;;;;;5095275;28;20047;-82
2021/09/08 19:19:55;;;;;;;73.75;40.63;;;14.10;91.40;;;;;;5094770;28;20470;-83
2021/09/08 19:22:20;;;;;;;56.08;30.73;;;14.20;91.50;;;;;;5094941;28;20035;-83
2021/09/08 19:24:46;;;;;;;55.38;30.08;;;14.20;91.60;;;;;;5093799;28;20028;-83
2021/09/08 19:27:12;;;;;;;54.15;28.50;;;14.10;92.00;;;;;;5093756;28;20020;-83
2021/09/08 19:29:38;;;;;;;48.28;27.05;;;14.10;91.70;;;;;;5093730;28;20077;-83
2021/09/08 19:32:04;;;;;;;48.47;25.73;;;14.10;91.80;;;;;;5095222;28;20039;-83
2021/09/08 19:34:29;;;;;;;48.28;27.40;;;14.10;91.80;;;;;;5094540;28;20100;-83
2021/09/08 19:36:55;;;;;;;51.95;25.80;;;14.00;91.80;;;;;;5095186;28;20463;-83
2021/09/08 19:39:21;;;;;;;51.67;27.23;;;14.00;91.90;;;;;;5092745;28;20413;-83
2021/09/08 19:41:47;;;;;;;57.83;27.45;;;14.10;91.90;;;;;;5094723;28;20028;-82
2021/09/08 19:44:13;;;;;;;51.97;27.95;;;14.10;91.80;;;;;;5094776;28;20050;-82
2021/09/08 19:46:39;;;;;;;56.67;28.90;;;14.10;91.70;;;;;;5094997;28;20494;-83
2021/09/08 19:49:05;;;;;;;51.88;29.00;;;14.10;91.40;;;;;;5094269;28;20099;-82
2021/09/08 19:51:30;;;;;;;54.83;31.55;;;14.10;91.20;;;;;;5093087;28;20044;-82
2021/09/08 19:53:56;;;;;;;57.75;32.13;;;14.10;91.00;;;;;;5094582;28;20020;-82
2021/09/08 19:56:23;;;;;;;58.35;31.80;;;14.10;90.70;;;;;;5094504;28;20072;-82
2021/09/08 19:58:50;;;;;;;53.25;31.35;;;14.20;90.50;;;;;;5093491;28;20462;-82
2021/09/08 20:01:16;;;;;;;52.40;31.05;;;14.20;90.30;;;;;;5094766;28;20058;-82
2021/09/08 20:03:41;;;;;;;56.85;31.40;;;14.20;90.30;;;;;;5094389;28;20024;-85
2021/09/08 20:06:07;;;;;;;51.88;32.05;;;14.20;90.10;;;;;;5094463;28;20149;-86
2021/09/08 20:08:33;;;;;;;58.97;33.45;;;14.20;90.10;;;;;;5094390;28;20412;-86
2021/09/08 20:10:59;;;;;;;54.60;32.85;;;14.20;90.10;;;;;;5093171;28;20028;-88
2021/09/08 20:13:25;;;;;;;56.25;31.85;;;14.20;90.00;;;;;;5093279;28;20119;-91
2021/09/08 20:15:50;;;;;;;58.63;33.72;;;14.20;90.00;;;;;;5094572;28;20109;-87
2021/09/08 20:18:16;;;;;;;56.22;33.35;;;14.20;90.00;;;;;;5094385;28;20026;-90
2021/09/08 20:20:42;;;;;;;51.35;29.98;;;14.10;89.90;;;;;;5093131;28;20024;-87
2021/09/08 20:23:08;;;;;;;63.70;35.65;;;14.20;89.90;;;;;;5093048;28;20046;-85
2021/09/08 20:25:34;;;;;;;57.05;32.40;;;14.10;89.60;;;;;;5093891;28;20032;-90
2021/09/08 20:28:00;;;;;;;49.42;28.63;;;14.10;89.40;;;;;;5092965;28;20536;-84
2021/09/08 20:30:25;;;;;;;51.00;28.52;;;14.10;89.30;;;;;;5092915;28;20031;-87
2021/09/08 20:32:51;;;;;;;49.42;27.23;;;14.10;89.10;;;;;;5094358;28;20028;-86
2021/09/08 20:35:17;;;;;;;45.05;25.48;;;14.10;89.40;;;;;;5092537;28;20056;-87
2021/09/08 20:37:43;;;;;;;45.10;24.40;;;14.10;89.70;;;;;;5092422;28;20028;-86
2021/09/08 20:40:11;;;;;;;50.38;25.25;;;14.10;89.40;;;;;;5092670;28;20070;-86
2021/09/08 20:42:36;;;;;;;45.95;23.88;;;14.10;89.00;;;;;;5093872;28;20232;-87
2021/09/08 20:45:03;;;;;;;41.80;22.65;;;14.10;88.90;;;;;;5093552;28;20888;-87
2021/09/08 20:47:29;;;;;;;36.47;21.88;;;14.10;88.90;;;;;;5092683;28;20027;-87
2021/09/08 20:49:54;;;;;;;35.58;19.65;;;14.10;88.90;;;;;;5092631;28;20032;-87
2021/09/08 20:52:20;;;;;;;34.50;21.25;;;14.00;88.70;;;;;;5093317;28;20055;-87
2021/09/08 20:54:46;;;;;;;34.80;20.92;;;14.00;88.90;;;;;;5074891;28;20060;-86
2021/09/08 20:57:12;;;;;;;40.38;21.15;;;14.00;88.70;;;;;;5073393;28;20108;-87
2021/09/08 20:59:38;;;;;;;29.23;19.27;;;14.00;88.70;;;;;;5089290;28;20038;-87
2021/09/08 21:02:03;;;;;;;31.75;19.15;;;14.00;89.10;;;;;;5089267;28;20086;-87
2021/09/08 21:04:29;;;;;;;35.42;18.13;;;14.00;89.00;;;;;;5088925;28;20032;-86
2021/09/08 21:06:55;;;;;;;32.95;18.42;;;14.00;88.90;;;;;;5073810;28;20082;-87
2021/09/08 21:09:20;;;;;;;30.05;17.05;;;14.00;88.70;;;;;;5073489;28;20029;-87
2021/09/08 21:11:46;;;;;;;34.00;18.42;;;14.00;88.80;;;;;;5072360;28;20031;-87
2021/09/08 21:14:12;;;;;;;33.10;18.23;;;13.90;88.50;;;;;;5089283;28;20474;-88
2021/09/08 21:16:37;;;;;;;34.78;17.80;;;13.90;88.70;;;;;;5072506;28;20055;-87
2021/09/08 21:19:04;;;;;;;32.30;18.08;;;13.90;88.70;;;;;;5073997;28;20024;-87
2021/09/08 21:21:29;;;;;;;32.75;16.10;;;13.90;88.70;;;;;;5072438;28;20478;-89
2021/09/08 21:23:55;;;;;;;26.90;16.63;;;13.90;88.70;;;;;;5073577;28;20050;-88
2021/09/08 21:26:21;;;;;;;30.33;16.80;;;13.90;88.70;;;;;;5072371;28;20025;-88
2021/09/08 21:28:46;;;;;;;32.58;17.27;;;13.90;88.80;;;;;;5072030;28;20028;-88
2021/09/08 21:31:13;;;;;;;31.83;17.15;;;13.90;88.40;;;;;;5072284;28;20390;-88
2021/09/08 21:33:39;;;;;;;29.98;17.08;;;13.90;88.40;;;;;;5087178;28;20035;-87
2021/09/08 21:36:05;;;;;;;31.15;16.40;;;13.90;87.60;;;;;;5093682;28;20024;-87
2021/09/08 21:38:31;;;;;;;26.15;15.75;;;13.90;87.50;;;;;;5093664;28;20031;-92
2021/09/08 21:40:56;;;;;;;29.75;15.15;;;13.90;87.30;;;;;;5096189;28;20180;-88
2021/09/08 21:43:22;;;;;;;26.42;15.48;;;13.90;87.10;;;;;;5097338;28;20026;-88
2021/09/08 21:45:48;;;;;;;25.55;15.50;;;13.90;87.20;;;;;;5097616;28;20359;-87
2021/09/08 21:48:13;;;;;;;26.52;15.45;;;13.90;86.90;;;;;;5096002;28;20028;-88
2021/09/08 21:50:39;;;;;;;24.73;14.07;;;13.90;86.80;;;;;;5096003;28;20074;-87
2021/09/08 21:53:05;;;;;;;30.90;14.23;;;13.90;86.80;;;;;;5096573;28;20055;-87
2021/09/08 21:55:31;;;;;;;20.30;12.75;;;13.80;86.80;;;;;;5096036;28;20024;-88
2021/09/08 21:57:56;;;;;;;25.73;13.73;;;13.80;86.40;;;;;;5095969;28;20026;-88
2021/09/08 22:00:25;;;;;;;24.30;13.35;;;13.80;86.80;;;;;;5095691;28;20020;-87
2021/09/08 22:02:51;;;;;;;21.40;12.75;;;13.80;87.20;;;;;;5095940;28;20028;-88
2021/09/08 22:05:18;;;;;;;26.52;13.52;;;13.80;87.40;;;;;;5096026;28;20481;-88
2021/09/08 22:07:43;;;;;;;25.90;14.48;;;13.80;87.50;;;;;;5097144;28;20096;-88
2021/09/08 22:10:09;;;;;;;26.90;13.35;;;13.70;87.60;;;;;;5095864;28;20118;-88
2021/09/08 22:12:35;;;;;;;23.77;13.70;;;13.70;87.70;;;;;;5095487;28;20115;-88
2021/09/08 22:15:01;;;;;;;26.13;13.80;;;13.70;87.90;;;;;;5096839;28;20598;-88
2021/09/08 22:17:27;;;;;;;27.63;13.50;;;13.70;88.00;;;;;;5096762;28;20027;-88
2021/09/08 22:19:53;;;;;;;27.88;13.52;;;13.60;88.00;;;;;;5095527;28;20024;-88
2021/09/08 22:22:18;;;;;;;27.75;13.88;;;13.60;87.80;;;;;;5095542;28;20028;-87
2021/09/08 22:24:44;;;;;;;26.40;14.25;;;13.70;87.40;;;;;;5095843;28;20035;-87
2021/09/08 22:27:10;;;;;;;26.17;13.63;;;13.60;87.20;;;;;;5095629;28;20031;-87
2021/09/08 22:29:35;;;;;;;27.55;13.70;;;13.60;87.20;;;;;;5095564;28;20056;-87
2021/09/08 22:32:02;;;;;;;24.02;13.90;;;13.60;87.20;;;;;;5096345;28;20095;-88
2021/09/08 22:34:27;;;;;;;23.75;13.35;;;13.60;87.30;;;;;;5095505;28;20051;-88
2021/09/08 22:36:53;;;;;;;28.63;13.27;;;13.60;87.30;;;;;;5095346;28;20451;-88
2021/09/08 22:39:19;;;;;;;26.30;13.85;;;13.60;87.40;;;;;;5095164;28;20016;-88
2021/09/08 22:41:44;;;;;;;24.60;13.25;;;13.60;87.60;;;;;;5095099;28;20064;-87
2021/09/08 22:44:10;;;;;;;24.25;13.38;;;13.60;87.70;;;;;;5095983;28;20497;-88
2021/09/08 22:46:36;;;;;;;20.70;13.10;;;13.50;87.70;;;;;;5095077;28;20028;-87
2021/09/08 22:49:01;;;;;;;21.20;13.18;;;13.50;87.90;;;;;;5096168;28;20020;-88
2021/09/08 22:51:27;;;;;;;25.30;13.25;;;13.50;88.00;;;;;;5096104;28;20052;-88
2021/09/08 22:53:53;;;;;;;24.63;13.80;;;13.40;88.10;;;;;;5094806;28;20115;-88
2021/09/08 22:56:18;;;;;;;23.42;13.30;;;13.40;88.20;;;;;;5095793;28;20474;-87
2021/09/08 22:58:45;;;;;;;20.48;12.85;;;13.40;88.20;;;;;;5096023;28;20020;-88
2021/09/08 23:01:11;;;;;;;24.52;13.40;;;13.40;88.10;;;;;;5094723;28;20020;-88
2021/09/08 23:03:36;;;;;;;27.17;13.88;;;13.40;88.10;;;;;;5094552;28;20024;-88
2021/09/08 23:06:02;;;;;;;26.25;13.80;;;13.40;88.40;;;;;;5094570;28;20531;-87
2021/09/08 23:08:28;;;;;;;22.50;13.55;;;13.40;88.60;;;;;;5094713;28;20023;-87
2021/09/08 23:10:54;;;;;;;24.42;14.18;;;13.30;88.60;;;;;;5095744;28;20028;-87
2021/09/08 23:13:19;;;;;;;25.17;14.27;;;13.30;88.60;;;;;;5094553;28;20028;-87
2021/09/08 23:15:46;;;;;;;23.90;13.13;;;13.40;88.70;;;;;;5095350;28;20043;-89
2021/09/08 23:18:12;;;;;;;28.40;13.98;;;13.40;88.80;;;;;;5094469;28;20035;-88
2021/09/08 23:20:38;;;;;;;24.02;13.43;;;13.30;88.70;;;;;;5094410;28;20032;-87
2021/09/08 23:23:04;;;;;;;27.10;13.88;;;13.30;88.70;;;;;;5094585;28;20032;-87
2021/09/08 23:25:30;;;;;;;22.42;12.82;;;13.30;88.80;;;;;;5094367;28;20024;-87
2021/09/08 23:27:56;;;;;;;21.88;13.23;;;13.30;88.80;;;;;;5094395;28;20363;-88
2021/09/08 23:30:22;;;;;;;24.58;13.25;;;13.20;88.90;;;;;;5093990;28;20024;-88
2021/09/08 23:32:48;;;;;;;23.95;13.55;;;13.30;89.30;;;;;;5094057;28;20047;-89
2021/09/08 23:35:14;;;;;;;20.55;12.35;;;13.30;89.40;;;;;;5094192;28;20032;-88
2021/09/08 23:37:39;;;;;;;22.13;13.32;;;13.20;89.60;;;;;;5094007;28;20020;-88
2021/09/08 23:40:06;;;;;;;28.67;13.60;;;13.20;89.80;;;;;;5094072;28;20474;-88
2021/09/08 23:42:32;;;;;;;28.13;13.98;;;13.20;89.90;;;;;;5094132;28;20047;-88
2021/09/08 23:44:58;;;;;;;27.85;15.07;;;13.20;89.80;;;;;;5094071;28;20482;-86
2021/09/08 23:47:24;;;;;;;23.95;14.10;;;13.20;89.80;;;;;;5094985;28;20028;-86
2021/09/08 23:49:50;;;;;;;25.00;14.32;;;13.20;89.70;;;;;;5093700;28;20030;-86
2021/09/08 23:52:17;;;;;;;25.67;13.85;;;13.20;89.80;;;;;;5093284;28;20044;-87
2021/09/08 23:54:44;;;;;;;26.17;14.98;;;13.10;89.80;;;;;;5094744;28;20016;-87
2021/09/08 23:57:10;;;;;;;26.15;14.30;;;13.10;90.00;;;;;;5094721;28;20020;-87
2021/09/08 23:59:36;;;;;;;25.33;14.20;;;13.10;90.10;;;;;;5093211;28;20028;-87
